CYRL

Red Lake Airport

Red Lake, Ontario, Canada
TAF CYRL 141938Z 1420/1503 25008KT P6SM SKC BECMG 1500/1502 VRB03KT RMK NXT FCST WILL BE ISSUED AT 151145Z
Issued Valid From Valid To
Dec-14 @ 19:38 UTC
(3 hours ago)
Dec-14 @ 20:00 UTC
(2 hours ago)
Dec-15 @ 03:00 UTC
(in 5 hours)
Dec-14 @ 20:00 to Dec-15 @ 00:00
TAF CYRL 141938Z 1420/1503 25008KT P6SM SKC
Wind Visibility Clouds
250° at 8 knots Greater than 6 miles
  • Clear skies
Becoming Dec-15 @ 00:00 to Dec-15 @ 03:00
BECMG 1500/1502 VRB03KT RMK NXT FCST WILL BE ISSUED AT 151145Z
Wind Visibility Clouds
Variable at 3 knots Greater than 6 miles
  • Clear skies
TAF CYRL 141938Z 1420/1503 25008KT P6SM SKC BECMG 1500/1502 VRB03KT RMK NXT FCST WILL BE ISSUED AT 151145Z
Issued Dec-14 @ 19:38 UTC
(3 hours ago)
Valid From Dec-14 @ 20:00 UTC
(2 hours ago)
Valid To Dec-15 @ 03:00 UTC
(in 5 hours)
Dec-14 @ 20:00 - Dec-15 @ 00:00
Wind Visibility
250° at 8 knots Greater than 6 miles
Clouds
  • Clear skies
Becoming Dec-15 @ 00:00 - Dec-15 @ 03:00
Wind Visibility
Variable at 3 knots Greater than 6 miles
Clouds
  • Clear skies